Time;durP1;ratioP1;P1;durP2;ratioP2;P2;SDS_P1;SDS_P2;PMS_P1;PMS_P2;Temp;Humidity;BMP_temperature;BMP_pressure;BME280_temperature;BME280_humidity;BME280_pressure;Samples;Min_cycle;Max_cycle;Signal;HPM_P1;HPM_P2
2021/05/30 00:01:54;;;;;;;5.15;2.65;;;10.70;66.30;;;;;;5138630;27;20744;-69
2021/05/30 00:04:23;;;;;;;3.38;2.42;;;10.70;66.60;;;;;;5135852;27;20283;-69
2021/05/30 00:06:50;;;;;;;3.30;2.55;;;10.60;66.30;;;;;;5139913;27;20895;-69
2021/05/30 00:09:16;;;;;;;6.05;3.28;;;10.50;67.10;;;;;;5136194;27;20206;-69
2021/05/30 00:11:43;;;;;;;5.55;3.40;;;10.40;68.30;;;;;;5161073;27;20243;-70
2021/05/30 00:14:10;;;;;;;5.03;2.92;;;10.40;69.30;;;;;;5177795;27;20705;-69
2021/05/30 00:16:37;;;;;;;8.45;2.65;;;10.30;69.60;;;;;;5154978;27;20191;-69
2021/05/30 00:19:04;;;;;;;5.50;2.90;;;10.30;70.20;;;;;;5136463;27;20521;-69
2021/05/30 00:21:32;;;;;;;4.55;3.30;;;10.30;70.60;;;;;;5155331;27;20237;-69
2021/05/30 00:23:58;;;;;;;6.28;3.83;;;10.30;70.90;;;;;;5177685;27;20213;-69
2021/05/30 00:26:26;;;;;;;6.53;3.25;;;10.20;70.80;;;;;;5160397;27;20184;-69
2021/05/30 00:28:52;;;;;;;3.95;3.10;;;10.20;70.90;;;;;;5150864;27;20183;-70
2021/05/30 00:31:19;;;;;;;4.18;3.20;;;10.10;71.00;;;;;;5177400;27;20678;-69
2021/05/30 00:33:46;;;;;;;4.05;3.25;;;10.10;71.00;;;;;;5165330;27;20195;-69
2021/05/30 00:36:13;;;;;;;4.13;3.15;;;10.00;71.80;;;;;;5135785;27;20649;-69
2021/05/30 00:38:41;;;;;;;3.97;3.20;;;10.00;71.70;;;;;;5144406;27;20186;-69
2021/05/30 00:41:07;;;;;;;4.57;3.15;;;10.00;71.60;;;;;;5177332;27;20186;-69
2021/05/30 00:43:44;;;;;;;4.65;3.55;;;10.00;71.60;;;;;;5170689;27;20191;-69
2021/05/30 00:46:10;;;;;;;3.75;2.95;;;10.00;71.70;;;;;;5135796;27;20187;-68
2021/05/30 00:48:38;;;;;;;4.25;2.63;;;10.00;71.00;;;;;;5141315;27;20577;-69
2021/05/30 00:51:05;;;;;;;3.17;2.70;;;10.00;70.60;;;;;;5177224;27;20593;-69
2021/05/30 00:53:35;;;;;;;5.82;2.78;;;10.00;70.70;;;;;;5173101;27;20204;-69
2021/05/30 00:56:06;;;;;;;4.05;3.10;;;10.00;70.90;;;;;;5135747;27;20188;-69
2021/05/30 00:58:33;;;;;;;4.82;3.38;;;9.90;72.30;;;;;;5137419;27;20188;-69
2021/05/30 01:01:00;;;;;;;6.50;3.35;;;10.00;71.00;;;;;;5176752;27;20245;-69
2021/05/30 01:03:27;;;;;;;3.38;2.47;;;9.90;72.30;;;;;;5176446;27;20224;-70
2021/05/30 01:05:54;;;;;;;4.53;2.35;;;9.90;72.20;;;;;;5137920;27;20227;-69
2021/05/30 01:08:26;;;;;;;4.90;3.13;;;9.80;72.20;;;;;;5135266;27;20195;-69
2021/05/30 01:10:54;;;;;;;7.65;3.65;;;9.80;72.80;;;;;;5175040;27;20186;-69
2021/05/30 01:13:26;;;;;;;5.05;3.47;;;9.80;73.30;;;;;;5142992;27;20195;-69
2021/05/30 01:15:54;;;;;;;5.80;4.00;;;9.80;73.30;;;;;;5163061;27;20194;-68
2021/05/30 01:18:23;;;;;;;5.30;3.40;;;9.80;72.80;;;;;;5176665;27;20198;-68
2021/05/30 01:20:50;;;;;;;3.55;2.70;;;9.80;72.30;;;;;;5150225;27;20206;-69
2021/05/30 01:23:18;;;;;;;3.80;2.42;;;9.70;72.20;;;;;;5134809;27;20215;-69
2021/05/30 01:25:46;;;;;;;2.95;2.20;;;9.70;72.10;;;;;;5157899;27;20293;-69
2021/05/30 01:28:13;;;;;;;3.90;2.47;;;9.70;72.30;;;;;;5176558;27;20292;-69
2021/05/30 01:30:41;;;;;;;3.17;1.90;;;9.60;72.60;;;;;;5155354;27;20191;-69
2021/05/30 01:33:08;;;;;;;2.88;2.22;;;9.50;72.70;;;;;;5134926;27;20225;-69
2021/05/30 01:35:35;;;;;;;6.40;2.63;;;9.50;73.20;;;;;;5152712;27;20179;-69
2021/05/30 01:38:02;;;;;;;7.80;2.67;;;9.50;73.90;;;;;;5176433;27;20198;-69
2021/05/30 01:40:30;;;;;;;3.78;2.83;;;9.40;73.10;;;;;;5160411;27;20549;-68
2021/05/30 01:42:57;;;;;;;4.50;2.78;;;9.30;72.50;;;;;;5134594;27;20219;-69
2021/05/30 01:45:28;;;;;;;4.88;2.95;;;9.20;71.60;;;;;;5147547;27;20183;-69
2021/05/30 01:47:55;;;;;;;4.80;2.70;;;9.10;71.40;;;;;;5176085;27;20194;-69
2021/05/30 01:50:23;;;;;;;6.30;3.75;;;8.90;73.20;;;;;;5164488;27;20191;-69
2021/05/30 01:52:51;;;;;;;5.07;3.30;;;8.90;74.70;;;;;;5134124;27;20200;-69
2021/05/30 01:55:23;;;;;;;5.68;3.33;;;8.90;74.00;;;;;;5136555;27;20545;-69
2021/05/30 01:57:55;;;;;;;4.88;3.67;;;8.90;74.10;;;;;;5134264;27;20297;-69
2021/05/30 02:00:22;;;;;;;7.45;3.35;;;8.90;74.90;;;;;;5142685;27;20680;-69
2021/05/30 02:02:51;;;;;;;8.38;3.03;;;8.70;75.10;;;;;;5175548;27;20218;-69
2021/05/30 02:05:18;;;;;;;3.67;3.15;;;8.70;75.10;;;;;;5168264;27;20187;-69
2021/05/30 02:07:45;;;;;;;3.25;2.78;;;8.70;74.60;;;;;;5134523;27;20651;-69
2021/05/30 02:10:13;;;;;;;3.72;2.72;;;8.70;75.00;;;;;;5175272;27;20186;-69
2021/05/30 02:12:40;;;;;;;5.50;2.80;;;8.80;75.10;;;;;;5175307;27;20193;-69
2021/05/30 02:15:09;;;;;;;6.13;2.40;;;8.80;75.20;;;;;;5135519;27;20183;-69
2021/05/30 02:17:39;;;;;;;3.30;2.30;;;8.80;75.60;;;;;;5137574;27;20187;-69
2021/05/30 02:20:08;;;;;;;4.13;3.03;;;8.80;75.90;;;;;;5174941;27;20693;-69
2021/05/30 02:22:34;;;;;;;3.35;2.50;;;8.80;76.60;;;;;;5173121;27;20225;-70
2021/05/30 02:25:01;;;;;;;7.25;3.03;;;8.80;76.60;;;;;;5133856;27;20762;-69
2021/05/30 02:27:28;;;;;;;4.90;3.10;;;8.80;76.80;;;;;;5133863;27;20664;-69
2021/05/30 02:30:01;;;;;;;3.83;2.40;;;8.80;76.60;;;;;;5133948;27;20549;-69
2021/05/30 02:32:29;;;;;;;5.60;3.00;;;8.80;76.00;;;;;;5133845;27;20199;-69
2021/05/30 02:34:55;;;;;;;4.18;2.95;;;8.70;76.40;;;;;;5173267;27;20186;-69
2021/05/30 02:37:22;;;;;;;3.10;2.38;;;8.70;76.70;;;;;;5151129;27;20219;-69
2021/05/30 02:39:49;;;;;;;4.00;2.50;;;8.70;76.20;;;;;;5133500;27;20191;-69
2021/05/30 02:42:18;;;;;;;3.08;2.42;;;8.70;75.40;;;;;;5153523;27;20210;-69
2021/05/30 02:44:45;;;;;;;4.38;3.33;;;8.60;75.40;;;;;;5175300;27;20190;-69
2021/05/30 02:47:11;;;;;;;4.30;3.03;;;8.60;75.10;;;;;;5156076;27;20232;-69
2021/05/30 02:49:39;;;;;;;3.90;2.80;;;8.60;75.60;;;;;;5133511;28;20188;-69
2021/05/30 02:52:06;;;;;;;3.45;2.40;;;8.50;74.90;;;;;;5165328;27;20644;-69
2021/05/30 02:54:33;;;;;;;2.70;2.20;;;8.50;76.40;;;;;;5174915;27;20182;-69
2021/05/30 02:57:00;;;;;;;3.45;2.30;;;8.40;75.90;;;;;;5145566;27;20245;-70
2021/05/30 02:59:27;;;;;;;3.85;2.63;;;8.40;75.60;;;;;;5133420;27;20187;-68
2021/05/30 03:01:53;;;;;;;3.72;2.42;;;8.40;75.20;;;;;;5159313;27;20228;-69
2021/05/30 03:04:20;;;;;;;4.63;2.92;;;8.40;75.00;;;;;;5175297;27;20182;-69
2021/05/30 03:06:48;;;;;;;6.43;2.97;;;8.40;74.90;;;;;;5164532;27;20676;-69
2021/05/30 03:09:15;;;;;;;2.67;2.13;;;8.30;75.70;;;;;;5174928;27;20637;-69
2021/05/30 03:11:41;;;;;;;3.20;2.47;;;8.30;75.30;;;;;;5153761;27;20183;-68
2021/05/30 03:14:08;;;;;;;3.17;2.83;;;8.30;75.30;;;;;;5133410;27;20188;-69
2021/05/30 03:16:37;;;;;;;3.13;2.40;;;8.30;75.60;;;;;;5150500;27;20182;-69
2021/05/30 03:19:04;;;;;;;3.25;2.30;;;8.30;75.20;;;;;;5174879;27;20182;-68
2021/05/30 03:21:31;;;;;;;3.85;2.75;;;8.30;74.60;;;;;;5163111;27;20191;-68
2021/05/30 03:24:00;;;;;;;4.43;3.00;;;8.20;74.90;;;;;;5174667;27;20194;-68
2021/05/30 03:26:26;;;;;;;5.13;3.65;;;8.20;75.80;;;;;;5170624;27;20182;-70
2021/05/30 03:28:53;;;;;;;3.15;2.85;;;8.10;76.40;;;;;;5147635;27;20179;-68
2021/05/30 03:31:20;;;;;;;4.57;3.50;;;8.00;76.50;;;;;;5162474;27;20193;-69
2021/05/30 03:33:47;;;;;;;5.60;4.65;;;7.90;77.60;;;;;;5178621;27;20190;-69
2021/05/30 03:36:22;;;;;;;7.93;4.78;;;7.90;77.70;;;;;;5169516;27;20258;-68
2021/05/30 03:38:49;;;;;;;4.70;4.00;;;7.80;78.20;;;;;;5156601;27;20188;-68
2021/05/30 03:41:19;;;;;;;4.70;3.47;;;7.80;77.90;;;;;;5169804;27;20176;-68
2021/05/30 03:43:46;;;;;;;4.60;3.65;;;7.80;78.00;;;;;;5136777;27;20685;-68
2021/05/30 03:46:13;;;;;;;3.42;3.03;;;7.80;78.40;;;;;;5142663;27;20193;-68
2021/05/30 03:48:39;;;;;;;4.65;3.40;;;7.80;78.60;;;;;;5178479;27;20193;-68
2021/05/30 03:51:06;;;;;;;4.80;3.35;;;7.80;78.60;;;;;;5156739;27;20225;-69
2021/05/30 03:53:33;;;;;;;8.02;4.50;;;7.90;78.50;;;;;;5137023;27;20225;-69
2021/05/30 03:56:00;;;;;;;5.00;2.88;;;7.90;78.30;;;;;;5154855;27;20198;-68
2021/05/30 03:58:27;;;;;;;5.50;3.83;;;7.90;77.00;;;;;;5178018;27;20182;-68
2021/05/30 04:00:54;;;;;;;5.82;3.65;;;7.90;76.90;;;;;;5162336;27;20196;-68
2021/05/30 04:03:21;;;;;;;6.00;3.90;;;7.90;76.90;;;;;;5156908;27;20225;-68
2021/05/30 04:05:47;;;;;;;4.63;3.20;;;7.90;77.30;;;;;;5165420;27;20196;-68
2021/05/30 04:08:14;;;;;;;6.60;4.15;;;7.90;77.80;;;;;;5136693;27;20188;-68
2021/05/30 04:10:44;;;;;;;6.93;3.70;;;8.00;77.70;;;;;;5145246;27;20182;-68
2021/05/30 04:13:11;;;;;;;5.05;3.30;;;8.00;76.80;;;;;;5178020;27;20198;-68
2021/05/30 04:15:38;;;;;;;3.65;2.55;;;8.00;77.60;;;;;;5174814;27;20182;-68
2021/05/30 04:18:05;;;;;;;3.97;2.65;;;8.00;77.30;;;;;;5178038;27;20186;-68
2021/05/30 04:20:32;;;;;;;7.25;3.35;;;8.00;77.20;;;;;;5159837;27;20180;-68
2021/05/30 04:22:58;;;;;;;6.03;3.58;;;8.00;76.80;;;;;;5136389;27;20223;-68
2021/05/30 04:25:25;;;;;;;3.85;2.83;;;8.00;76.40;;;;;;5150718;27;20217;-68
2021/05/30 04:27:52;;;;;;;3.83;2.75;;;7.90;77.30;;;;;;5149089;27;20184;-68
2021/05/30 04:30:19;;;;;;;7.90;3.08;;;7.90;77.90;;;;;;5147763;27;20667;-68
2021/05/30 04:32:47;;;;;;;4.88;3.20;;;8.00;78.00;;;;;;5177049;27;20186;-68
2021/05/30 04:35:14;;;;;;;4.72;2.80;;;7.90;77.90;;;;;;5168017;27;20588;-69
2021/05/30 04:37:41;;;;;;;4.35;3.00;;;8.00;78.90;;;;;;5135159;27;20196;-68
2021/05/30 04:40:09;;;;;;;4.57;3.08;;;8.00;79.10;;;;;;5163240;27;20182;-68
2021/05/30 04:42:36;;;;;;;4.53;3.45;;;8.10;79.00;;;;;;5177552;27;20297;-69
2021/05/30 04:45:05;;;;;;;4.28;2.85;;;8.10;79.40;;;;;;5152148;27;20541;-68
2021/05/30 04:47:31;;;;;;;4.80;3.10;;;8.20;79.40;;;;;;5135989;27;20192;-68
2021/05/30 04:49:59;;;;;;;5.95;4.20;;;8.30;79.50;;;;;;5158228;27;20185;-68
2021/05/30 04:52:26;;;;;;;7.78;4.32;;;8.40;79.10;;;;;;5144939;27;20180;-68
2021/05/30 04:54:52;;;;;;;7.20;5.07;;;8.40;80.10;;;;;;5169001;27;20202;-68
2021/05/30 04:57:19;;;;;;;9.73;5.22;;;8.50;80.50;;;;;;5164424;27;20176;-68
2021/05/30 04:59:46;;;;;;;4.75;3.92;;;8.50;80.20;;;;;;5135651;27;20554;-68
2021/05/30 05:02:13;;;;;;;6.85;4.13;;;8.60;80.30;;;;;;5144138;27;20270;-68
2021/05/30 05:04:39;;;;;;;4.85;4.35;;;8.60;81.80;;;;;;5177197;27;20187;-69
2021/05/30 05:07:07;;;;;;;5.95;3.50;;;8.70;82.40;;;;;;5170104;27;20207;-69
2021/05/30 05:09:33;;;;;;;5.90;3.58;;;8.80;82.40;;;;;;5135369;27;20232;-69
2021/05/30 05:12:01;;;;;;;5.45;3.75;;;8.90;83.30;;;;;;5138829;27;20192;-68
2021/05/30 05:14:27;;;;;;;5.22;3.75;;;9.00;82.40;;;;;;5176877;27;20197;-69
2021/05/30 05:16:54;;;;;;;4.55;3.45;;;9.10;82.10;;;;;;5175958;27;20187;-69
2021/05/30 05:19:20;;;;;;;7.32;3.35;;;9.20;82.30;;;;;;5135368;27;20267;-68
2021/05/30 05:21:47;;;;;;;5.32;3.55;;;9.30;82.70;;;;;;5135110;27;20191;-69
2021/05/30 05:24:15;;;;;;;4.35;3.20;;;9.30;83.50;;;;;;5138503;27;20188;-69
2021/05/30 05:26:42;;;;;;;5.20;3.15;;;9.40;83.90;;;;;;5176864;27;20245;-70
2021/05/30 05:29:08;;;;;;;5.25;3.85;;;9.60;84.50;;;;;;5138929;27;20196;-69
2021/05/30 05:31:35;;;;;;;4.40;3.50;;;9.70;85.00;;;;;;5136426;27;20196;-69
2021/05/30 05:34:05;;;;;;;3.95;3.10;;;9.90;85.00;;;;;;5137128;27;20179;-69
2021/05/30 05:36:32;;;;;;;4.40;3.67;;;10.00;83.10;;;;;;5145575;27;20595;-69
2021/05/30 05:38:59;;;;;;;4.50;3.92;;;10.10;82.50;;;;;;5148471;27;20191;-69
2021/05/30 05:41:27;;;;;;;5.50;3.92;;;10.20;82.50;;;;;;5150446;27;20187;-69
2021/05/30 05:43:55;;;;;;;4.65;3.30;;;10.30;82.70;;;;;;5152317;27;20219;-72
2021/05/30 05:46:21;;;;;;;4.38;3.22;;;10.50;83.00;;;;;;5149467;27;20700;-70
2021/05/30 05:48:48;;;;;;;4.70;3.25;;;10.60;83.00;;;;;;5153036;27;20187;-69
2021/05/30 05:51:14;;;;;;;4.63;3.30;;;10.80;83.20;;;;;;5151318;27;20196;-69
2021/05/30 05:53:41;;;;;;;5.47;3.55;;;10.90;84.10;;;;;;5151091;27;20597;-69
2021/05/30 05:56:08;;;;;;;3.67;3.25;;;11.00;82.60;;;;;;5138294;27;20607;-69
2021/05/30 05:58:36;;;;;;;3.53;3.03;;;11.10;82.20;;;;;;5146860;27;20183;-69
2021/05/30 06:01:04;;;;;;;4.47;3.53;;;11.20;82.20;;;;;;5144296;27;20192;-70
2021/05/30 06:03:35;;;;;;;4.82;4.10;;;11.20;82.20;;;;;;5133695;27;20310;-70
2021/05/30 06:06:03;;;;;;;6.35;3.70;;;11.30;83.50;;;;;;5134733;27;20180;-69
2021/05/30 06:08:30;;;;;;;5.65;3.80;;;11.40;83.30;;;;;;5152140;27;20585;-69
2021/05/30 06:10:56;;;;;;;4.55;4.10;;;11.60;81.80;;;;;;5149945;27;20188;-69
2021/05/30 06:13:24;;;;;;;5.50;3.85;;;11.60;81.00;;;;;;5133465;27;20184;-69
2021/05/30 06:15:52;;;;;;;5.70;4.07;;;11.70;80.30;;;;;;5141011;27;20195;-69
2021/05/30 06:18:21;;;;;;;6.93;4.50;;;11.80;81.10;;;;;;5133554;27;20194;-70
2021/05/30 06:20:50;;;;;;;6.70;4.80;;;11.90;81.80;;;;;;5139728;27;20179;-69
2021/05/30 06:23:18;;;;;;;6.55;5.40;;;12.10;81.60;;;;;;5133458;27;20705;-69
2021/05/30 06:25:45;;;;;;;5.90;4.57;;;12.20;79.80;;;;;;5139037;27;20569;-69
2021/05/30 06:28:12;;;;;;;6.90;4.28;;;12.30;79.30;;;;;;5151342;27;20187;-69
2021/05/30 06:30:40;;;;;;;4.40;3.90;;;12.40;79.40;;;;;;5138602;27;20231;-70
2021/05/30 06:33:10;;;;;;;5.75;4.80;;;12.50;79.30;;;;;;5147046;27;20191;-69
2021/05/30 06:35:40;;;;;;;5.82;3.95;;;12.60;78.70;;;;;;5150474;27;20657;-69
2021/05/30 06:38:08;;;;;;;7.68;4.07;;;12.70;77.90;;;;;;5147541;27;20579;-69
2021/05/30 06:40:34;;;;;;;5.38;3.80;;;12.80;77.40;;;;;;5148908;27;20191;-69
2021/05/30 06:43:01;;;;;;;5.78;4.60;;;12.90;76.60;;;;;;5151507;27;20267;-70
2021/05/30 06:45:27;;;;;;;7.57;5.28;;;13.00;75.80;;;;;;5149920;27;20201;-69
2021/05/30 06:47:55;;;;;;;12.88;4.45;;;13.10;75.40;;;;;;5150068;27;20191;-69
2021/05/30 06:50:24;;;;;;;4.97;4.13;;;13.20;75.40;;;;;;5146599;27;20198;-70
2021/05/30 06:52:51;;;;;;;6.10;4.22;;;13.30;76.10;;;;;;5148402;27;20213;-69
2021/05/30 06:55:20;;;;;;;4.97;4.47;;;13.40;76.00;;;;;;5151518;27;20199;-69
2021/05/30 06:57:48;;;;;;;6.55;4.63;;;13.60;76.60;;;;;;5151437;27;20179;-69
2021/05/30 07:00:15;;;;;;;5.55;4.80;;;13.80;76.40;;;;;;5134875;27;20192;-70
2021/05/30 07:02:42;;;;;;;5.07;3.90;;;13.90;74.30;;;;;;5148406;27;20217;-69
2021/05/30 07:05:10;;;;;;;4.60;3.88;;;14.00;70.30;;;;;;5152563;27;20191;-70
2021/05/30 07:07:38;;;;;;;7.03;4.28;;;14.20;70.40;;;;;;5140330;27;20194;-70
2021/05/30 07:10:06;;;;;;;4.22;3.60;;;14.30;70.70;;;;;;5137060;27;20191;-69
2021/05/30 07:12:33;;;;;;;6.03;3.90;;;14.50;68.70;;;;;;5140944;27;20210;-69
2021/05/30 07:15:00;;;;;;;7.83;3.80;;;14.60;62.20;;;;;;5153694;27;20775;-69
2021/05/30 07:17:26;;;;;;;5.18;3.88;;;14.80;62.70;;;;;;5150461;27;20429;-70
2021/05/30 07:19:55;;;;;;;4.47;3.50;;;15.00;58.60;;;;;;5150439;27;20266;-69
2021/05/30 07:22:22;;;;;;;4.53;3.40;;;15.20;59.60;;;;;;5136847;27;20477;-69
2021/05/30 07:24:50;;;;;;;4.65;3.45;;;15.40;59.90;;;;;;5148417;27;20470;-69
2021/05/30 07:27:16;;;;;;;4.87;3.30;;;15.60;57.70;;;;;;5137025;27;20341;-70
2021/05/30 07:29:43;;;;;;;5.00;3.63;;;15.80;55.80;;;;;;5137007;27;20802;-69
2021/05/30 07:32:09;;;;;;;6.37;3.60;;;15.90;55.10;;;;;;5137187;27;20472;-70
2021/05/30 07:34:36;;;;;;;4.47;3.20;;;15.90;54.90;;;;;;5137349;27;20524;-69
2021/05/30 07:37:02;;;;;;;4.67;3.30;;;16.10;52.90;;;;;;5136924;27;20457;-70
2021/05/30 07:39:29;;;;;;;4.13;3.07;;;16.20;53.10;;;;;;5151358;27;20528;-69
2021/05/30 07:41:56;;;;;;;4.23;3.17;;;16.40;54.60;;;;;;5154696;27;20436;-70
2021/05/30 07:44:22;;;;;;;5.10;3.30;;;16.50;51.80;;;;;;5155230;27;20467;-69
2021/05/30 07:46:49;;;;;;;5.43;2.90;;;16.60;52.40;;;;;;5155107;27;20524;-69
2021/05/30 07:49:15;;;;;;;4.00;3.20;;;16.60;50.80;;;;;;5155159;27;20432;-69
2021/05/30 07:51:42;;;;;;;6.03;2.60;;;16.60;52.60;;;;;;5155001;27;20468;-70
2021/05/30 07:54:09;;;;;;;4.20;2.57;;;16.60;51.10;;;;;;5154927;27;20953;-70
2021/05/30 07:56:37;;;;;;;3.50;2.33;;;16.70;50.50;;;;;;5155233;27;20471;-70
2021/05/30 07:59:07;;;;;;;4.00;2.47;;;16.80;50.00;;;;;;5154420;27;20461;-70
2021/05/30 08:01:34;;;;;;;3.20;1.97;;;17.00;50.00;;;;;;5155173;27;20453;-69
2021/05/30 08:04:00;;;;;;;3.70;3.03;;;17.20;49.60;;;;;;5154181;27;20566;-70
2021/05/30 08:06:29;;;;;;;3.00;2.40;;;17.40;48.00;;;;;;5154191;27;20455;-70
2021/05/30 08:08:56;;;;;;;3.20;2.30;;;17.60;48.10;;;;;;5137976;27;20498;-69
2021/05/30 08:11:22;;;;;;;3.90;1.70;;;17.70;45.60;;;;;;5137740;27;21538;-70
2021/05/30 08:13:49;;;;;;;3.40;2.20;;;17.80;46.00;;;;;;5142401;27;20768;-72
2021/05/30 08:16:19;;;;;;;6.40;2.10;;;18.00;47.20;;;;;;5150219;27;20798;-71
2021/05/30 08:18:45;;;;;;;3.30;2.20;;;18.10;45.30;;;;;;5142219;27;20513;-69
2021/05/30 08:21:15;;;;;;;4.73;1.90;;;18.20;44.50;;;;;;5153969;27;20514;-70
2021/05/30 08:23:44;;;;;;;3.20;2.70;;;18.20;42.00;;;;;;5135545;27;20473;-68
2021/05/30 08:26:11;;;;;;;2.93;2.33;;;18.30;42.20;;;;;;5147038;27;20460;-68
2021/05/30 08:28:44;;;;;;;3.90;1.83;;;18.30;40.70;;;;;;5154285;27;20428;-70
2021/05/30 08:31:11;;;;;;;3.73;2.10;;;18.40;39.20;;;;;;5154531;27;20820;-71
2021/05/30 08:33:40;;;;;;;3.80;2.40;;;18.50;40.80;;;;;;5153680;27;20463;-71
2021/05/30 08:36:07;;;;;;;4.30;2.33;;;18.60;40.00;;;;;;5150220;27;20432;-70
2021/05/30 08:38:34;;;;;;;3.90;2.37;;;18.60;41.70;;;;;;5142172;27;20457;-72
2021/05/30 08:41:00;;;;;;;4.20;1.83;;;18.80;40.20;;;;;;5151378;27;20432;-70
2021/05/30 08:43:27;;;;;;;6.73;2.60;;;18.90;36.60;;;;;;5150169;27;20476;-70
2021/05/30 08:45:56;;;;;;;5.30;2.23;;;19.00;38.10;;;;;;5147990;27;20437;-70
2021/05/30 08:48:22;;;;;;;2.90;1.60;;;19.10;37.10;;;;;;5143669;27;20433;-69
2021/05/30 08:53:35;;;;;;;2.93;2.10;;;19.20;39.00;;;;;;5147702;27;20432;-71
2021/05/30 08:56:04;;;;;;;3.00;1.50;;;19.30;34.30;;;;;;5146483;27;20492;-69
2021/05/30 08:58:36;;;;;;;5.80;2.07;;;19.30;34.00;;;;;;5140166;27;20436;-70
2021/05/30 09:01:11;;;;;;;7.50;2.63;;;19.40;34.80;;;;;;5149197;27;20797;-69
2021/05/30 09:03:51;;;;;;;5.07;2.57;;;19.60;35.00;;;;;;5142724;27;20495;-70
2021/05/30 09:06:20;;;;;;;3.30;1.77;;;19.60;35.30;;;;;;5138018;27;20437;-69
2021/05/30 09:08:50;;;;;;;3.20;2.30;;;19.70;35.00;;;;;;5149056;27;20437;-69
2021/05/30 09:11:38;;;;;;;2.90;2.17;;;19.60;32.10;;;;;;5152580;27;20443;-69
2021/05/30 09:14:10;;;;;;;2.80;1.77;;;19.60;35.30;;;;;;5149112;27;20832;-67
2021/05/30 09:17:07;;;;;;;3.17;2.37;;;19.60;34.90;;;;;;5140641;27;20536;-68
2021/05/30 09:19:36;;;;;;;4.90;1.90;;;19.70;35.30;;;;;;5145540;27;20958;-68
2021/05/30 09:22:22;;;;;;;3.80;2.40;;;19.70;33.60;;;;;;5143726;27;20425;-71
2021/05/30 09:25:15;;;;;;;3.80;2.20;;;19.60;33.60;;;;;;5145047;27;20467;-70
2021/05/30 09:27:59;;;;;;;4.50;2.47;;;19.50;34.70;;;;;;5145962;27;20432;-68
2021/05/30 09:30:35;;;;;;;2.47;1.77;;;19.60;36.80;;;;;;5145332;27;20420;-68
2021/05/30 09:33:18;;;;;;;3.10;2.20;;;19.90;37.20;;;;;;5148449;27;20443;-70
2021/05/30 09:35:51;;;;;;;3.43;1.90;;;20.10;35.20;;;;;;5147035;27;20441;-68
2021/05/30 09:38:26;;;;;;;3.00;2.10;;;20.30;36.00;;;;;;5139679;27;20470;-71
2021/05/30 09:40:56;;;;;;;6.00;2.20;;;20.30;34.40;;;;;;5146412;27;20481;-70
2021/05/30 09:43:34;;;;;;;4.70;1.87;;;20.40;34.00;;;;;;5134358;27;21073;-70
2021/05/30 09:46:08;;;;;;;2.90;2.27;;;20.40;35.40;;;;;;5136256;27;20441;-69
2021/05/30 09:48:45;;;;;;;3.17;2.13;;;20.60;33.80;;;;;;5138342;27;20456;-69
2021/05/30 09:51:40;;;;;;;4.70;2.00;;;20.80;33.70;;;;;;5139405;27;20438;-69
2021/05/30 09:54:11;;;;;;;3.70;2.33;;;20.90;33.30;;;;;;5117879;27;20446;-69
2021/05/30 09:56:40;;;;;;;3.90;3.13;;;21.00;31.00;;;;;;5140811;27;20433;-70
2021/05/30 09:59:11;;;;;;;4.70;1.90;;;21.00;32.30;;;;;;5144398;27;20887;-69
2021/05/30 10:01:56;;;;;;;5.60;2.30;;;21.00;34.30;;;;;;5144451;27;20436;-69
2021/05/30 10:04:25;;;;;;;5.60;2.70;;;21.10;35.70;;;;;;5139298;27;20838;-69
2021/05/30 10:07:01;;;;;;;6.83;2.70;;;21.20;34.80;;;;;;5146832;27;20966;-70
2021/05/30 10:09:30;;;;;;;3.90;2.20;;;21.30;34.50;;;;;;5148222;27;20423;-69
2021/05/30 10:11:57;;;;;;;4.60;2.37;;;21.30;32.70;;;;;;5148379;27;20520;-69
2021/05/30 10:14:28;;;;;;;4.50;2.80;;;21.30;33.60;;;;;;5143091;27;20766;-71
2021/05/30 10:16:58;;;;;;;5.47;2.80;;;21.20;32.70;;;;;;5135534;27;20516;-69
2021/05/30 10:19:34;;;;;;;4.47;2.00;;;21.10;32.80;;;;;;5143046;27;21078;-69
2021/05/30 10:22:05;;;;;;;5.53;2.23;;;21.00;34.30;;;;;;5140840;27;20436;-69
2021/05/30 10:24:33;;;;;;;5.43;2.40;;;21.10;34.80;;;;;;5151168;27;20798;-69
2021/05/30 10:27:18;;;;;;;3.93;2.50;;;21.20;33.90;;;;;;5144859;27;20441;-70
2021/05/30 10:30:15;;;;;;;2.70;2.00;;;21.30;33.30;;;;;;5136629;27;20438;-69
2021/05/30 10:32:43;;;;;;;4.83;2.60;;;21.30;32.80;;;;;;5134142;27;20444;-70
2021/05/30 10:35:13;;;;;;;6.03;2.47;;;21.30;32.50;;;;;;5142935;27;20730;-70
2021/05/30 10:37:50;;;;;;;3.50;2.00;;;21.40;33.60;;;;;;5141782;27;20483;-69
2021/05/30 10:40:28;;;;;;;4.50;2.20;;;21.40;33.80;;;;;;5147311;27;20927;-70
2021/05/30 10:43:17;;;;;;;3.63;2.60;;;21.40;32.70;;;;;;5141409;27;20472;-69
2021/05/30 10:46:09;;;;;;;4.33;2.50;;;21.40;32.20;;;;;;5142851;27;20432;-69
2021/05/30 10:48:38;;;;;;;4.77;1.93;;;21.40;32.10;;;;;;5137609;27;20429;-70
2021/05/30 10:51:32;;;;;;;3.83;2.40;;;21.50;32.50;;;;;;5134632;27;20448;-70
2021/05/30 10:54:13;;;;;;;6.23;1.80;;;21.40;31.00;;;;;;5145081;27;20428;-70
2021/05/30 10:56:47;;;;;;;3.17;1.83;;;21.40;32.40;;;;;;5137164;27;20497;-72
2021/05/30 10:59:27;;;;;;;3.50;2.57;;;21.50;31.80;;;;;;5145834;27;20440;-69
2021/05/30 11:01:56;;;;;;;4.07;2.50;;;21.50;30.90;;;;;;5144600;27;20503;-70
2021/05/30 11:04:36;;;;;;;4.27;2.20;;;21.60;31.00;;;;;;5150977;27;20834;-70
2021/05/30 11:07:37;;;;;;;4.70;2.40;;;21.70;32.40;;;;;;5150821;27;20938;-69
2021/05/30 11:10:09;;;;;;;3.30;1.67;;;21.90;32.00;;;;;;5136588;27;20437;-72
2021/05/30 11:12:52;;;;;;;4.07;2.30;;;22.00;31.80;;;;;;5140268;27;20958;-70
2021/05/30 11:15:23;;;;;;;3.30;2.10;;;22.20;32.80;;;;;;5144711;27;20421;-70
2021/05/30 11:17:52;;;;;;;2.77;2.30;;;22.40;31.60;;;;;;5145938;27;20443;-70
2021/05/30 11:20:20;;;;;;;5.83;2.00;;;22.70;31.70;;;;;;5149200;27;20926;-70
2021/05/30 11:22:49;;;;;;;3.20;1.70;;;22.90;31.90;;;;;;5150500;27;20480;-70
2021/05/30 11:25:20;;;;;;;3.27;1.97;;;23.00;29.50;;;;;;5139320;27;20456;-70
2021/05/30 11:27:53;;;;;;;5.13;2.50;;;23.00;28.40;;;;;;5147337;27;20456;-70
2021/05/30 11:30:51;;;;;;;4.17;2.20;;;23.00;29.80;;;;;;5151135;27;20819;-70
2021/05/30 11:33:38;;;;;;;4.23;2.17;;;22.90;28.50;;;;;;5086429;28;20458;-70
2021/05/30 11:36:09;;;;;;;3.33;2.10;;;22.80;30.00;;;;;;5127818;27;20437;-70
2021/05/30 11:38:40;;;;;;;2.57;1.87;;;22.70;30.00;;;;;;5132976;27;20468;-71
2021/05/30 11:41:16;;;;;;;3.43;2.40;;;22.60;30.40;;;;;;5133150;27;20428;-70
2021/05/30 11:44:05;;;;;;;6.80;2.77;;;22.40;29.50;;;;;;5132753;27;20505;-70
2021/05/30 11:46:35;;;;;;;4.20;1.77;;;22.40;29.70;;;;;;5152614;27;20432;-70
2021/05/30 11:49:07;;;;;;;3.20;2.17;;;22.50;31.30;;;;;;5151048;27;20488;-70
2021/05/30 11:51:58;;;;;;;4.67;2.30;;;22.60;30.90;;;;;;5155407;27;20805;-70
2021/05/30 11:54:26;;;;;;;3.20;2.13;;;22.60;29.10;;;;;;5155195;27;20460;-70
2021/05/30 11:56:56;;;;;;;5.50;3.70;;;22.60;30.20;;;;;;5155230;27;20468;-69
2021/05/30 11:59:31;;;;;;;4.07;2.00;;;22.60;30.10;;;;;;5136324;27;20433;-69
2021/05/30 12:01:58;;;;;;;2.50;2.10;;;22.60;29.90;;;;;;5136702;27;20935;-69
2021/05/30 12:04:31;;;;;;;5.23;2.20;;;22.50;31.30;;;;;;5136253;27;21010;-70
2021/05/30 12:06:58;;;;;;;3.17;2.17;;;22.50;30.40;;;;;;5151255;27;20907;-69
2021/05/30 12:09:42;;;;;;;3.60;2.30;;;22.40;29.60;;;;;;5154652;27;20440;-69
2021/05/30 12:12:23;;;;;;;3.80;2.67;;;22.30;29.10;;;;;;5145561;27;20441;-70
2021/05/30 12:14:53;;;;;;;3.13;2.00;;;22.30;30.50;;;;;;5145205;27;20881;-70
2021/05/30 12:17:20;;;;;;;4.27;2.43;;;22.50;31.10;;;;;;5149033;27;20485;-69
2021/05/30 12:19:52;;;;;;;5.10;2.50;;;22.60;30.50;;;;;;5153461;27;20438;-70
2021/05/30 12:22:21;;;;;;;3.20;2.13;;;22.70;30.00;;;;;;5151857;27;20469;-71
2021/05/30 12:24:48;;;;;;;4.73;2.60;;;22.70;29.30;;;;;;5148601;27;20486;-69
2021/05/30 12:27:15;;;;;;;7.13;2.97;;;22.70;29.00;;;;;;5151972;27;20437;-71
2021/05/30 12:29:46;;;;;;;3.90;2.10;;;22.60;28.50;;;;;;5137870;27;20460;-70
2021/05/30 12:32:14;;;;;;;3.87;2.60;;;22.50;28.60;;;;;;5135274;27;20441;-70
2021/05/30 12:34:40;;;;;;;4.70;2.30;;;22.40;29.60;;;;;;5140498;27;20451;-70
2021/05/30 12:37:15;;;;;;;4.60;2.17;;;22.30;29.10;;;;;;5151054;27;20431;-70
2021/05/30 12:39:42;;;;;;;5.20;3.00;;;22.20;29.10;;;;;;5143023;27;20432;-69
2021/05/30 12:42:11;;;;;;;3.53;2.00;;;22.10;28.60;;;;;;5146171;27;20439;-69
2021/05/30 12:44:42;;;;;;;3.00;2.17;;;22.00;28.60;;;;;;5145819;27;20485;-70
2021/05/30 12:47:19;;;;;;;3.97;1.97;;;22.00;29.40;;;;;;5149113;27;20471;-70
2021/05/30 12:49:57;;;;;;;3.07;2.00;;;22.00;29.40;;;;;;5154182;27;20785;-70
2021/05/30 12:52:29;;;;;;;3.30;2.03;;;22.00;28.80;;;;;;5143152;27;20982;-70
2021/05/30 12:55:06;;;;;;;3.37;1.67;;;21.90;28.70;;;;;;5152757;27;20521;-69
2021/05/30 12:57:34;;;;;;;4.10;2.27;;;21.90;29.20;;;;;;5150694;27;20840;-70
2021/05/30 13:00:01;;;;;;;3.00;2.50;;;21.90;30.30;;;;;;5153253;27;20473;-70
2021/05/30 13:02:29;;;;;;;4.00;1.93;;;21.90;30.00;;;;;;5152939;27;20925;-69
2021/05/30 13:04:58;;;;;;;4.80;2.20;;;21.90;28.70;;;;;;5148998;27;20433;-70
2021/05/30 13:07:35;;;;;;;2.87;1.97;;;21.70;28.00;;;;;;5148561;27;20422;-70